sensor_id;sensor_type;location;lat;lon;timestamp;P1;durP1;ratioP1;P2;durP2;ratioP2
33501;SDS011;22396;51.070;4.974;2023-01-23T00:01:48;34.23;;;14.63;;
33501;SDS011;22396;51.070;4.974;2023-01-23T00:04:14;31.73;;;14.47;;
33501;SDS011;22396;51.070;4.974;2023-01-23T00:06:39;39.07;;;14.63;;
33501;SDS011;22396;51.070;4.974;2023-01-23T00:09:05;40.13;;;13.90;;
33501;SDS011;22396;51.070;4.974;2023-01-23T00:11:30;39.17;;;15.20;;
33501;SDS011;22396;51.070;4.974;2023-01-23T00:13:56;32.90;;;14.13;;
33501;SDS011;22396;51.070;4.974;2023-01-23T00:16:22;37.50;;;15.00;;
33501;SDS011;22396;51.070;4.974;2023-01-23T00:18:47;33.60;;;14.37;;
33501;SDS011;22396;51.070;4.974;2023-01-23T00:21:14;41.70;;;14.50;;
33501;SDS011;22396;51.070;4.974;2023-01-23T00:23:43;32.00;;;13.97;;
33501;SDS011;22396;51.070;4.974;2023-01-23T00:26:10;37.60;;;14.97;;
33501;SDS011;22396;51.070;4.974;2023-01-23T00:28:36;31.00;;;14.53;;
33501;SDS011;22396;51.070;4.974;2023-01-23T00:31:02;38.03;;;15.23;;
33501;SDS011;22396;51.070;4.974;2023-01-23T00:33:28;39.03;;;15.20;;
33501;SDS011;22396;51.070;4.974;2023-01-23T00:35:53;47.60;;;15.60;;
33501;SDS011;22396;51.070;4.974;2023-01-23T00:38:18;36.73;;;13.30;;
33501;SDS011;22396;51.070;4.974;2023-01-23T00:40:44;35.83;;;15.00;;
33501;SDS011;22396;51.070;4.974;2023-01-23T00:43:09;40.60;;;14.97;;
33501;SDS011;22396;51.070;4.974;2023-01-23T00:45:34;33.17;;;14.13;;
33501;SDS011;22396;51.070;4.974;2023-01-23T00:48:01;40.37;;;14.53;;
33501;SDS011;22396;51.070;4.974;2023-01-23T00:50:27;36.07;;;14.47;;
33501;SDS011;22396;51.070;4.974;2023-01-23T00:52:52;36.77;;;15.67;;
33501;SDS011;22396;51.070;4.974;2023-01-23T00:55:17;38.10;;;14.73;;
33501;SDS011;22396;51.070;4.974;2023-01-23T00:57:42;34.23;;;14.60;;
33501;SDS011;22396;51.070;4.974;2023-01-23T01:00:08;35.23;;;15.00;;
33501;SDS011;22396;51.070;4.974;2023-01-23T01:02:33;37.60;;;14.53;;
33501;SDS011;22396;51.070;4.974;2023-01-23T01:04:58;40.63;;;15.70;;
33501;SDS011;22396;51.070;4.974;2023-01-23T01:07:23;36.47;;;14.50;;
33501;SDS011;22396;51.070;4.974;2023-01-23T01:09:49;37.80;;;15.63;;
33501;SDS011;22396;51.070;4.974;2023-01-23T01:12:14;32.30;;;13.37;;
33501;SDS011;22396;51.070;4.974;2023-01-23T01:14:39;33.77;;;14.20;;
33501;SDS011;22396;51.070;4.974;2023-01-23T01:17:04;33.40;;;14.47;;
33501;SDS011;22396;51.070;4.974;2023-01-23T01:19:31;36.10;;;15.50;;
33501;SDS011;22396;51.070;4.974;2023-01-23T01:21:56;37.07;;;13.50;;
33501;SDS011;22396;51.070;4.974;2023-01-23T01:24:21;32.07;;;14.37;;
33501;SDS011;22396;51.070;4.974;2023-01-23T01:26:46;38.07;;;15.73;;
33501;SDS011;22396;51.070;4.974;2023-01-23T01:29:11;37.70;;;14.50;;
33501;SDS011;22396;51.070;4.974;2023-01-23T01:31:37;43.33;;;15.83;;
33501;SDS011;22396;51.070;4.974;2023-01-23T01:34:02;36.43;;;15.93;;
33501;SDS011;22396;51.070;4.974;2023-01-23T01:36:27;46.03;;;15.37;;
33501;SDS011;22396;51.070;4.974;2023-01-23T01:38:52;43.23;;;15.53;;
33501;SDS011;22396;51.070;4.974;2023-01-23T01:41:17;40.47;;;14.43;;
33501;SDS011;22396;51.070;4.974;2023-01-23T01:43:43;42.27;;;15.27;;
33501;SDS011;22396;51.070;4.974;2023-01-23T01:51:03;39.77;;;14.63;;
33501;SDS011;22396;51.070;4.974;2023-01-23T01:53:29;38.30;;;15.33;;
33501;SDS011;22396;51.070;4.974;2023-01-23T01:55:55;41.80;;;14.83;;
33501;SDS011;22396;51.070;4.974;2023-01-23T01:58:20;35.20;;;14.20;;
33501;SDS011;22396;51.070;4.974;2023-01-23T02:00:46;34.67;;;14.47;;
33501;SDS011;22396;51.070;4.974;2023-01-23T02:03:11;40.47;;;14.90;;
33501;SDS011;22396;51.070;4.974;2023-01-23T02:05:40;38.27;;;14.60;;
33501;SDS011;22396;51.070;4.974;2023-01-23T02:08:08;47.73;;;15.33;;
33501;SDS011;22396;51.070;4.974;2023-01-23T02:10:37;39.50;;;14.70;;
33501;SDS011;22396;51.070;4.974;2023-01-23T02:13:17;38.93;;;14.87;;
33501;SDS011;22396;51.070;4.974;2023-01-23T02:15:43;40.03;;;13.63;;
33501;SDS011;22396;51.070;4.974;2023-01-23T02:18:09;40.37;;;14.17;;
33501;SDS011;22396;51.070;4.974;2023-01-23T02:20:34;39.77;;;15.80;;
33501;SDS011;22396;51.070;4.974;2023-01-23T02:28:09;40.90;;;15.10;;
33501;SDS011;22396;51.070;4.974;2023-01-23T02:30:35;43.77;;;14.87;;
33501;SDS011;22396;51.070;4.974;2023-01-23T02:33:09;31.23;;;14.13;;
33501;SDS011;22396;51.070;4.974;2023-01-23T02:35:35;35.93;;;13.33;;
33501;SDS011;22396;51.070;4.974;2023-01-23T02:38:01;35.47;;;14.27;;
33501;SDS011;22396;51.070;4.974;2023-01-23T02:40:34;37.43;;;15.07;;
33501;SDS011;22396;51.070;4.974;2023-01-23T02:43:01;38.13;;;14.33;;
33501;SDS011;22396;51.070;4.974;2023-01-23T02:45:26;43.00;;;15.27;;
33501;SDS011;22396;51.070;4.974;2023-01-23T02:47:52;37.73;;;15.10;;
33501;SDS011;22396;51.070;4.974;2023-01-23T02:50:17;40.27;;;15.43;;
33501;SDS011;22396;51.070;4.974;2023-01-23T02:52:43;42.10;;;15.47;;
33501;SDS011;22396;51.070;4.974;2023-01-23T02:55:09;44.27;;;15.57;;
33501;SDS011;22396;51.070;4.974;2023-01-23T02:57:34;36.17;;;14.20;;
33501;SDS011;22396;51.070;4.974;2023-01-23T03:00:00;41.63;;;16.87;;
33501;SDS011;22396;51.070;4.974;2023-01-23T03:02:40;37.17;;;14.60;;
33501;SDS011;22396;51.070;4.974;2023-01-23T03:05:05;47.73;;;14.37;;
33501;SDS011;22396;51.070;4.974;2023-01-23T03:07:31;46.00;;;16.60;;
33501;SDS011;22396;51.070;4.974;2023-01-23T03:09:56;47.63;;;16.67;;
33501;SDS011;22396;51.070;4.974;2023-01-23T03:12:21;47.67;;;17.03;;
33501;SDS011;22396;51.070;4.974;2023-01-23T03:14:46;51.50;;;16.53;;
33501;SDS011;22396;51.070;4.974;2023-01-23T03:17:13;55.13;;;17.37;;
33501;SDS011;22396;51.070;4.974;2023-01-23T03:19:39;51.87;;;18.17;;
33501;SDS011;22396;51.070;4.974;2023-01-23T03:22:05;46.20;;;16.77;;
33501;SDS011;22396;51.070;4.974;2023-01-23T03:24:30;48.13;;;17.10;;
33501;SDS011;22396;51.070;4.974;2023-01-23T03:26:57;51.73;;;18.57;;
33501;SDS011;22396;51.070;4.974;2023-01-23T03:29:23;47.07;;;17.17;;
33501;SDS011;22396;51.070;4.974;2023-01-23T03:32:08;46.20;;;17.03;;
33501;SDS011;22396;51.070;4.974;2023-01-23T03:34:34;46.17;;;16.37;;
33501;SDS011;22396;51.070;4.974;2023-01-23T03:36:59;44.43;;;16.30;;
33501;SDS011;22396;51.070;4.974;2023-01-23T03:39:25;36.77;;;14.87;;
33501;SDS011;22396;51.070;4.974;2023-01-23T03:42:09;45.30;;;16.00;;
33501;SDS011;22396;51.070;4.974;2023-01-23T03:44:34;45.20;;;16.07;;
33501;SDS011;22396;51.070;4.974;2023-01-23T03:46:59;43.47;;;17.17;;
33501;SDS011;22396;51.070;4.974;2023-01-23T03:49:25;46.87;;;16.53;;
33501;SDS011;22396;51.070;4.974;2023-01-23T03:51:50;48.23;;;16.90;;
33501;SDS011;22396;51.070;4.974;2023-01-23T03:54:15;39.17;;;15.17;;
33501;SDS011;22396;51.070;4.974;2023-01-23T03:56:41;48.70;;;16.63;;
33501;SDS011;22396;51.070;4.974;2023-01-23T03:59:06;53.83;;;16.80;;
33501;SDS011;22396;51.070;4.974;2023-01-23T04:01:31;45.87;;;16.10;;
33501;SDS011;22396;51.070;4.974;2023-01-23T04:03:57;47.70;;;15.77;;
33501;SDS011;22396;51.070;4.974;2023-01-23T04:06:22;52.73;;;16.43;;
33501;SDS011;22396;51.070;4.974;2023-01-23T04:08:47;40.67;;;16.20;;
33501;SDS011;22396;51.070;4.974;2023-01-23T04:11:12;47.63;;;15.37;;
33501;SDS011;22396;51.070;4.974;2023-01-23T04:13:38;47.87;;;17.63;;
33501;SDS011;22396;51.070;4.974;2023-01-23T04:16:03;44.53;;;16.47;;
33501;SDS011;22396;51.070;4.974;2023-01-23T04:18:29;42.47;;;15.50;;
33501;SDS011;22396;51.070;4.974;2023-01-23T04:20:55;44.73;;;15.90;;
33501;SDS011;22396;51.070;4.974;2023-01-23T04:23:20;43.57;;;14.33;;
33501;SDS011;22396;51.070;4.974;2023-01-23T04:25:45;43.03;;;14.23;;
33501;SDS011;22396;51.070;4.974;2023-01-23T04:28:11;44.07;;;15.87;;
33501;SDS011;22396;51.070;4.974;2023-01-23T04:30:36;44.53;;;14.50;;
33501;SDS011;22396;51.070;4.974;2023-01-23T04:33:01;42.30;;;16.13;;
33501;SDS011;22396;51.070;4.974;2023-01-23T04:35:26;44.50;;;16.17;;
33501;SDS011;22396;51.070;4.974;2023-01-23T04:37:52;40.47;;;15.67;;
33501;SDS011;22396;51.070;4.974;2023-01-23T04:40:17;44.27;;;15.50;;
33501;SDS011;22396;51.070;4.974;2023-01-23T04:42:42;42.97;;;15.57;;
33501;SDS011;22396;51.070;4.974;2023-01-23T04:45:08;42.63;;;15.70;;
33501;SDS011;22396;51.070;4.974;2023-01-23T04:47:33;44.70;;;14.63;;
33501;SDS011;22396;51.070;4.974;2023-01-23T04:49:58;38.00;;;14.53;;
33501;SDS011;22396;51.070;4.974;2023-01-23T04:52:24;37.57;;;14.27;;
33501;SDS011;22396;51.070;4.974;2023-01-23T04:54:49;44.50;;;15.90;;
33501;SDS011;22396;51.070;4.974;2023-01-23T04:57:14;51.40;;;16.30;;
33501;SDS011;22396;51.070;4.974;2023-01-23T04:59:39;47.50;;;16.73;;
33501;SDS011;22396;51.070;4.974;2023-01-23T05:02:05;38.80;;;15.93;;
33501;SDS011;22396;51.070;4.974;2023-01-23T05:04:30;44.57;;;15.57;;
33501;SDS011;22396;51.070;4.974;2023-01-23T05:06:55;44.23;;;16.77;;
33501;SDS011;22396;51.070;4.974;2023-01-23T05:09:20;52.10;;;15.97;;
33501;SDS011;22396;51.070;4.974;2023-01-23T05:11:45;44.53;;;17.23;;
33501;SDS011;22396;51.070;4.974;2023-01-23T05:14:11;46.37;;;16.87;;
33501;SDS011;22396;51.070;4.974;2023-01-23T05:16:36;40.87;;;14.87;;
33501;SDS011;22396;51.070;4.974;2023-01-23T05:19:01;41.70;;;15.23;;
33501;SDS011;22396;51.070;4.974;2023-01-23T05:21:26;42.60;;;15.90;;
33501;SDS011;22396;51.070;4.974;2023-01-23T05:23:51;44.90;;;16.67;;
33501;SDS011;22396;51.070;4.974;2023-01-23T05:26:17;43.43;;;17.73;;
33501;SDS011;22396;51.070;4.974;2023-01-23T05:28:42;40.90;;;16.80;;
33501;SDS011;22396;51.070;4.974;2023-01-23T05:31:07;44.93;;;15.57;;
33501;SDS011;22396;51.070;4.974;2023-01-23T05:33:32;42.87;;;15.90;;
33501;SDS011;22396;51.070;4.974;2023-01-23T05:35:58;48.00;;;16.40;;
33501;SDS011;22396;51.070;4.974;2023-01-23T05:38:24;45.10;;;16.70;;
33501;SDS011;22396;51.070;4.974;2023-01-23T05:40:49;43.07;;;16.50;;
33501;SDS011;22396;51.070;4.974;2023-01-23T05:43:15;47.17;;;16.47;;
33501;SDS011;22396;51.070;4.974;2023-01-23T05:45:40;48.47;;;17.53;;
33501;SDS011;22396;51.070;4.974;2023-01-23T05:48:05;50.97;;;16.97;;
33501;SDS011;22396;51.070;4.974;2023-01-23T05:50:30;49.17;;;17.83;;
33501;SDS011;22396;51.070;4.974;2023-01-23T05:52:55;43.63;;;16.47;;
33501;SDS011;22396;51.070;4.974;2023-01-23T05:55:21;48.87;;;18.07;;
33501;SDS011;22396;51.070;4.974;2023-01-23T05:57:46;48.53;;;16.87;;
33501;SDS011;22396;51.070;4.974;2023-01-23T06:00:12;52.20;;;17.47;;
33501;SDS011;22396;51.070;4.974;2023-01-23T06:02:37;42.53;;;16.90;;
33501;SDS011;22396;51.070;4.974;2023-01-23T06:05:03;42.17;;;16.97;;
33501;SDS011;22396;51.070;4.974;2023-01-23T06:07:28;50.80;;;17.57;;
33501;SDS011;22396;51.070;4.974;2023-01-23T06:09:53;44.33;;;17.17;;
33501;SDS011;22396;51.070;4.974;2023-01-23T06:12:18;44.37;;;16.20;;
33501;SDS011;22396;51.070;4.974;2023-01-23T06:14:44;49.63;;;17.30;;
33501;SDS011;22396;51.070;4.974;2023-01-23T06:17:13;61.03;;;19.37;;
33501;SDS011;22396;51.070;4.974;2023-01-23T06:19:39;65.03;;;22.07;;
33501;SDS011;22396;51.070;4.974;2023-01-23T06:22:04;55.30;;;19.07;;
33501;SDS011;22396;51.070;4.974;2023-01-23T06:24:29;49.67;;;18.93;;
33501;SDS011;22396;51.070;4.974;2023-01-23T06:26:55;42.87;;;16.40;;
33501;SDS011;22396;51.070;4.974;2023-01-23T06:29:20;41.53;;;16.77;;
33501;SDS011;22396;51.070;4.974;2023-01-23T06:31:45;38.83;;;15.90;;
33501;SDS011;22396;51.070;4.974;2023-01-23T06:34:11;41.63;;;15.63;;
33501;SDS011;22396;51.070;4.974;2023-01-23T06:36:36;41.30;;;14.87;;
33501;SDS011;22396;51.070;4.974;2023-01-23T06:39:02;42.90;;;16.63;;
33501;SDS011;22396;51.070;4.974;2023-01-23T06:41:27;43.53;;;15.43;;
33501;SDS011;22396;51.070;4.974;2023-01-23T06:43:52;34.03;;;12.20;;
33501;SDS011;22396;51.070;4.974;2023-01-23T06:46:18;34.57;;;15.17;;
33501;SDS011;22396;51.070;4.974;2023-01-23T06:48:44;40.30;;;14.53;;
33501;SDS011;22396;51.070;4.974;2023-01-23T06:51:09;41.20;;;15.57;;
33501;SDS011;22396;51.070;4.974;2023-01-23T06:53:34;40.37;;;14.53;;
33501;SDS011;22396;51.070;4.974;2023-01-23T06:55:59;39.17;;;14.80;;
33501;SDS011;22396;51.070;4.974;2023-01-23T06:58:25;34.87;;;14.47;;
33501;SDS011;22396;51.070;4.974;2023-01-23T07:00:51;36.47;;;14.67;;
33501;SDS011;22396;51.070;4.974;2023-01-23T07:03:16;44.63;;;15.97;;
33501;SDS011;22396;51.070;4.974;2023-01-23T07:05:41;36.70;;;14.47;;
33501;SDS011;22396;51.070;4.974;2023-01-23T07:08:07;37.50;;;14.63;;
33501;SDS011;22396;51.070;4.974;2023-01-23T07:10:33;33.73;;;14.23;;
33501;SDS011;22396;51.070;4.974;2023-01-23T07:12:58;38.23;;;14.37;;
33501;SDS011;22396;51.070;4.974;2023-01-23T07:15:23;42.87;;;15.53;;
33501;SDS011;22396;51.070;4.974;2023-01-23T07:17:48;41.40;;;16.27;;
33501;SDS011;22396;51.070;4.974;2023-01-23T07:20:13;39.23;;;16.20;;
33501;SDS011;22396;51.070;4.974;2023-01-23T07:22:39;50.00;;;16.00;;
33501;SDS011;22396;51.070;4.974;2023-01-23T07:25:05;36.67;;;14.17;;
33501;SDS011;22396;51.070;4.974;2023-01-23T07:27:30;40.43;;;15.43;;
33501;SDS011;22396;51.070;4.974;2023-01-23T07:29:57;46.47;;;17.30;;
33501;SDS011;22396;51.070;4.974;2023-01-23T07:32:22;46.90;;;14.83;;
33501;SDS011;22396;51.070;4.974;2023-01-23T07:34:47;39.97;;;14.70;;
33501;SDS011;22396;51.070;4.974;2023-01-23T07:37:12;38.63;;;15.60;;
33501;SDS011;22396;51.070;4.974;2023-01-23T07:39:37;42.67;;;14.70;;
33501;SDS011;22396;51.070;4.974;2023-01-23T07:42:03;43.87;;;16.27;;
33501;SDS011;22396;51.070;4.974;2023-01-23T07:44:28;36.83;;;13.90;;
33501;SDS011;22396;51.070;4.974;2023-01-23T07:46:53;49.70;;;18.03;;
33501;SDS011;22396;51.070;4.974;2023-01-23T07:49:18;41.63;;;15.37;;
33501;SDS011;22396;51.070;4.974;2023-01-23T07:51:43;40.33;;;17.47;;
33501;SDS011;22396;51.070;4.974;2023-01-23T07:54:09;43.90;;;16.87;;
33501;SDS011;22396;51.070;4.974;2023-01-23T07:56:34;48.23;;;17.70;;
33501;SDS011;22396;51.070;4.974;2023-01-23T07:58:59;43.30;;;15.60;;
33501;SDS011;22396;51.070;4.974;2023-01-23T08:01:24;41.53;;;16.17;;
33501;SDS011;22396;51.070;4.974;2023-01-23T08:03:51;41.70;;;16.47;;
33501;SDS011;22396;51.070;4.974;2023-01-23T08:06:16;38.53;;;14.30;;
33501;SDS011;22396;51.070;4.974;2023-01-23T08:08:41;43.50;;;17.17;;
33501;SDS011;22396;51.070;4.974;2023-01-23T08:11:07;39.53;;;15.73;;
33501;SDS011;22396;51.070;4.974;2023-01-23T08:13:34;39.07;;;15.50;;
33501;SDS011;22396;51.070;4.974;2023-01-23T08:15:59;39.90;;;14.70;;
33501;SDS011;22396;51.070;4.974;2023-01-23T08:18:25;40.43;;;16.27;;
33501;SDS011;22396;51.070;4.974;2023-01-23T08:20:54;39.00;;;15.87;;
33501;SDS011;22396;51.070;4.974;2023-01-23T08:23:19;40.30;;;16.23;;
33501;SDS011;22396;51.070;4.974;2023-01-23T08:25:44;38.73;;;14.43;;
33501;SDS011;22396;51.070;4.974;2023-01-23T08:28:10;57.50;;;22.60;;
33501;SDS011;22396;51.070;4.974;2023-01-23T08:30:35;77.03;;;26.07;;
33501;SDS011;22396;51.070;4.974;2023-01-23T08:33:01;62.03;;;23.03;;
33501;SDS011;22396;51.070;4.974;2023-01-23T08:35:28;56.63;;;20.03;;
33501;SDS011;22396;51.070;4.974;2023-01-23T08:37:53;47.13;;;19.10;;
33501;SDS011;22396;51.070;4.974;2023-01-23T08:40:19;44.47;;;17.23;;
33501;SDS011;22396;51.070;4.974;2023-01-23T08:42:44;44.83;;;17.13;;
33501;SDS011;22396;51.070;4.974;2023-01-23T08:45:09;44.40;;;17.47;;
33501;SDS011;22396;51.070;4.974;2023-01-23T08:47:34;43.77;;;18.30;;
33501;SDS011;22396;51.070;4.974;2023-01-23T08:50:00;51.03;;;19.07;;
33501;SDS011;22396;51.070;4.974;2023-01-23T08:52:25;46.60;;;17.53;;
33501;SDS011;22396;51.070;4.974;2023-01-23T08:54:51;48.00;;;16.73;;
33501;SDS011;22396;51.070;4.974;2023-01-23T08:57:16;45.73;;;16.97;;
33501;SDS011;22396;51.070;4.974;2023-01-23T08:59:41;48.47;;;19.07;;
33501;SDS011;22396;51.070;4.974;2023-01-23T09:02:10;48.57;;;20.13;;
33501;SDS011;22396;51.070;4.974;2023-01-23T09:04:35;50.27;;;19.63;;
33501;SDS011;22396;51.070;4.974;2023-01-23T09:07:00;50.57;;;19.30;;
33501;SDS011;22396;51.070;4.974;2023-01-23T09:09:27;43.30;;;18.37;;
33501;SDS011;22396;51.070;4.974;2023-01-23T09:11:52;53.37;;;16.77;;
33501;SDS011;22396;51.070;4.974;2023-01-23T09:14:18;38.27;;;14.77;;
33501;SDS011;22396;51.070;4.974;2023-01-23T09:16:43;35.10;;;15.57;;
33501;SDS011;22396;51.070;4.974;2023-01-23T09:19:08;46.10;;;15.57;;
33501;SDS011;22396;51.070;4.974;2023-01-23T09:21:35;36.87;;;15.33;;
33501;SDS011;22396;51.070;4.974;2023-01-23T09:24:01;41.30;;;15.87;;
33501;SDS011;22396;51.070;4.974;2023-01-23T09:26:26;38.50;;;15.03;;
33501;SDS011;22396;51.070;4.974;2023-01-23T09:28:51;43.07;;;16.27;;
33501;SDS011;22396;51.070;4.974;2023-01-23T09:31:16;39.20;;;15.70;;
33501;SDS011;22396;51.070;4.974;2023-01-23T09:33:41;35.90;;;15.77;;
33501;SDS011;22396;51.070;4.974;2023-01-23T09:36:07;36.00;;;14.30;;
33501;SDS011;22396;51.070;4.974;2023-01-23T09:38:32;45.77;;;15.60;;
33501;SDS011;22396;51.070;4.974;2023-01-23T09:40:58;40.70;;;16.37;;
33501;SDS011;22396;51.070;4.974;2023-01-23T09:46:15;43.50;;;16.10;;
33501;SDS011;22396;51.070;4.974;2023-01-23T09:53:43;39.20;;;15.83;;
33501;SDS011;22396;51.070;4.974;2023-01-23T09:56:16;36.80;;;15.80;;
33501;SDS011;22396;51.070;4.974;2023-01-23T09:58:52;41.90;;;15.97;;
33501;SDS011;22396;51.070;4.974;2023-01-23T10:01:19;35.03;;;14.33;;
33501;SDS011;22396;51.070;4.974;2023-01-23T10:03:45;44.30;;;16.17;;
33501;SDS011;22396;51.070;4.974;2023-01-23T10:06:20;40.53;;;15.33;;
33501;SDS011;22396;51.070;4.974;2023-01-23T10:11:16;44.90;;;17.47;;
33501;SDS011;22396;51.070;4.974;2023-01-23T10:19:18;47.83;;;18.27;;
33501;SDS011;22396;51.070;4.974;2023-01-23T10:26:40;43.97;;;17.47;;
33501;SDS011;22396;51.070;4.974;2023-01-23T10:29:14;45.47;;;17.80;;
33501;SDS011;22396;51.070;4.974;2023-01-23T10:31:51;55.13;;;19.70;;
33501;SDS011;22396;51.070;4.974;2023-01-23T10:39:27;44.80;;;17.37;;
33501;SDS011;22396;51.070;4.974;2023-01-23T10:41:55;47.57;;;18.70;;
33501;SDS011;22396;51.070;4.974;2023-01-23T10:44:20;44.47;;;18.00;;
33501;SDS011;22396;51.070;4.974;2023-01-23T10:46:47;41.47;;;16.43;;
33501;SDS011;22396;51.070;4.974;2023-01-23T10:49:25;42.30;;;16.93;;
33501;SDS011;22396;51.070;4.974;2023-01-23T10:51:51;37.90;;;15.43;;
33501;SDS011;22396;51.070;4.974;2023-01-23T10:56:55;44.07;;;16.43;;
33501;SDS011;22396;51.070;4.974;2023-01-23T10:59:29;37.97;;;15.27;;
33501;SDS011;22396;51.070;4.974;2023-01-23T11:01:57;42.57;;;16.40;;
33501;SDS011;22396;51.070;4.974;2023-01-23T11:04:24;39.60;;;15.93;;
33501;SDS011;22396;51.070;4.974;2023-01-23T11:09:27;36.63;;;15.23;;
33501;SDS011;22396;51.070;4.974;2023-01-23T11:11:58;45.10;;;16.47;;
33501;SDS011;22396;51.070;4.974;2023-01-23T11:14:23;35.10;;;15.40;;
33501;SDS011;22396;51.070;4.974;2023-01-23T11:16:59;41.50;;;15.53;;
33501;SDS011;22396;51.070;4.974;2023-01-23T11:19:25;41.97;;;16.43;;
33501;SDS011;22396;51.070;4.974;2023-01-23T11:21:54;36.07;;;15.30;;
33501;SDS011;22396;51.070;4.974;2023-01-23T11:26:49;50.60;;;16.83;;
33501;SDS011;22396;51.070;4.974;2023-01-23T11:29:22;36.50;;;14.40;;
33501;SDS011;22396;51.070;4.974;2023-01-23T11:31:49;40.93;;;16.27;;
33501;SDS011;22396;51.070;4.974;2023-01-23T11:34:16;41.13;;;15.17;;
33501;SDS011;22396;51.070;4.974;2023-01-23T11:39:17;42.90;;;16.13;;
33501;SDS011;22396;51.070;4.974;2023-01-23T11:41:46;45.70;;;16.30;;
33501;SDS011;22396;51.070;4.974;2023-01-23T11:44:18;40.43;;;15.73;;
33501;SDS011;22396;51.070;4.974;2023-01-23T11:52:25;36.97;;;14.50;;
33501;SDS011;22396;51.070;4.974;2023-01-23T11:55:07;37.60;;;15.23;;
33501;SDS011;22396;51.070;4.974;2023-01-23T11:57:38;40.77;;;16.37;;
33501;SDS011;22396;51.070;4.974;2023-01-23T12:00:17;43.20;;;16.03;;
33501;SDS011;22396;51.070;4.974;2023-01-23T12:03:06;37.83;;;13.90;;
33501;SDS011;22396;51.070;4.974;2023-01-23T12:05:48;32.73;;;13.50;;
33501;SDS011;22396;51.070;4.974;2023-01-23T12:10:48;32.10;;;13.30;;
33501;SDS011;22396;51.070;4.974;2023-01-23T12:15:42;40.77;;;16.33;;
33501;SDS011;22396;51.070;4.974;2023-01-23T12:25:50;38.63;;;15.30;;
33501;SDS011;22396;51.070;4.974;2023-01-23T12:28:34;38.87;;;13.87;;
33501;SDS011;22396;51.070;4.974;2023-01-23T12:33:56;42.03;;;15.87;;
33501;SDS011;22396;51.070;4.974;2023-01-23T12:41:39;36.57;;;14.27;;
33501;SDS011;22396;51.070;4.974;2023-01-23T12:46:32;46.70;;;17.57;;
33501;SDS011;22396;51.070;4.974;2023-01-23T12:49:01;41.10;;;17.40;;
33501;SDS011;22396;51.070;4.974;2023-01-23T12:51:32;33.27;;;13.03;;
33501;SDS011;22396;51.070;4.974;2023-01-23T12:53:58;40.57;;;15.63;;
33501;SDS011;22396;51.070;4.974;2023-01-23T12:56:25;41.83;;;15.93;;
33501;SDS011;22396;51.070;4.974;2023-01-23T13:01:31;40.23;;;17.57;;
33501;SDS011;22396;51.070;4.974;2023-01-23T13:08:54;42.33;;;16.17;;
33501;SDS011;22396;51.070;4.974;2023-01-23T13:11:45;41.20;;;15.40;;
33501;SDS011;22396;51.070;4.974;2023-01-23T13:16:46;35.97;;;15.55;;
33501;SDS011;22396;51.070;4.974;2023-01-23T13:19:21;36.80;;;14.87;;
33501;SDS011;22396;51.070;4.974;2023-01-23T13:22:24;38.87;;;14.50;;
33501;SDS011;22396;51.070;4.974;2023-01-23T13:24:50;40.30;;;14.97;;
33501;SDS011;22396;51.070;4.974;2023-01-23T13:27:34;37.80;;;14.90;;
33501;SDS011;22396;51.070;4.974;2023-01-23T13:30:00;36.27;;;13.50;;
33501;SDS011;22396;51.070;4.974;2023-01-23T13:32:27;37.37;;;14.90;;
33501;SDS011;22396;51.070;4.974;2023-01-23T13:34:52;35.53;;;14.93;;
33501;SDS011;22396;51.070;4.974;2023-01-23T13:38:12;40.23;;;17.27;;
33501;SDS011;22396;51.070;4.974;2023-01-23T13:40:17;40.20;;;14.97;;
33501;SDS011;22396;51.070;4.974;2023-01-23T13:42:43;46.43;;;18.33;;
33501;SDS011;22396;51.070;4.974;2023-01-23T13:47:42;46.43;;;18.80;;
33501;SDS011;22396;51.070;4.974;2023-01-23T13:50:48;33.73;;;13.10;;
33501;SDS011;22396;51.070;4.974;2023-01-23T13:53:21;37.33;;;16.63;;
33501;SDS011;22396;51.070;4.974;2023-01-23T13:56:09;43.83;;;16.25;;
33501;SDS011;22396;51.070;4.974;2023-01-23T13:58:55;41.70;;;16.83;;
33501;SDS011;22396;51.070;4.974;2023-01-23T14:01:21;41.17;;;16.87;;
33501;SDS011;22396;51.070;4.974;2023-01-23T14:04:11;44.00;;;16.50;;
33501;SDS011;22396;51.070;4.974;2023-01-23T14:06:56;38.23;;;15.60;;
33501;SDS011;22396;51.070;4.974;2023-01-23T14:09:23;37.13;;;15.77;;
33501;SDS011;22396;51.070;4.974;2023-01-23T14:11:55;40.13;;;16.20;;
33501;SDS011;22396;51.070;4.974;2023-01-23T14:14:20;35.92;;;14.35;;
33501;SDS011;22396;51.070;4.974;2023-01-23T14:17:04;43.67;;;17.10;;
33501;SDS011;22396;51.070;4.974;2023-01-23T14:19:30;39.33;;;16.80;;
33501;SDS011;22396;51.070;4.974;2023-01-23T14:21:59;39.67;;;16.30;;
33501;SDS011;22396;51.070;4.974;2023-01-23T14:24:44;37.83;;;15.10;;
33501;SDS011;22396;51.070;4.974;2023-01-23T14:27:20;34.00;;;14.60;;
33501;SDS011;22396;51.070;4.974;2023-01-23T14:32:33;28.40;;;12.17;;
33501;SDS011;22396;51.070;4.974;2023-01-23T14:34:58;35.50;;;13.97;;
33501;SDS011;22396;51.070;4.974;2023-01-23T14:37:24;25.73;;;10.60;;
33501;SDS011;22396;51.070;4.974;2023-01-23T14:39:49;32.80;;;13.67;;
33501;SDS011;22396;51.070;4.974;2023-01-23T14:42:22;29.27;;;13.87;;
33501;SDS011;22396;51.070;4.974;2023-01-23T14:44:48;36.20;;;12.97;;
33501;SDS011;22396;51.070;4.974;2023-01-23T14:47:25;29.73;;;12.20;;
33501;SDS011;22396;51.070;4.974;2023-01-23T14:49:50;33.53;;;13.57;;
33501;SDS011;22396;51.070;4.974;2023-01-23T14:52:20;33.77;;;14.37;;
33501;SDS011;22396;51.070;4.974;2023-01-23T14:54:46;33.50;;;13.87;;
33501;SDS011;22396;51.070;4.974;2023-01-23T14:57:11;39.37;;;13.80;;
33501;SDS011;22396;51.070;4.974;2023-01-23T14:59:37;29.07;;;12.23;;
33501;SDS011;22396;51.070;4.974;2023-01-23T15:05:05;31.93;;;12.77;;
33501;SDS011;22396;51.070;4.974;2023-01-23T15:07:30;26.93;;;12.80;;
33501;SDS011;22396;51.070;4.974;2023-01-23T15:09:55;31.60;;;13.53;;
33501;SDS011;22396;51.070;4.974;2023-01-23T15:12:21;32.30;;;14.00;;
33501;SDS011;22396;51.070;4.974;2023-01-23T15:14:46;28.43;;;11.37;;
33501;SDS011;22396;51.070;4.974;2023-01-23T15:17:17;29.20;;;11.77;;
33501;SDS011;22396;51.070;4.974;2023-01-23T15:19:42;25.33;;;11.47;;
33501;SDS011;22396;51.070;4.974;2023-01-23T15:22:17;30.10;;;13.10;;
33501;SDS011;22396;51.070;4.974;2023-01-23T15:24:43;24.97;;;12.07;;
33501;SDS011;22396;51.070;4.974;2023-01-23T15:29:49;26.07;;;11.60;;
33501;SDS011;22396;51.070;4.974;2023-01-23T15:32:15;23.20;;;10.00;;
33501;SDS011;22396;51.070;4.974;2023-01-23T15:34:41;25.10;;;11.97;;
33501;SDS011;22396;51.070;4.974;2023-01-23T15:37:19;26.53;;;11.70;;
33501;SDS011;22396;51.070;4.974;2023-01-23T15:39:58;27.50;;;12.63;;
33501;SDS011;22396;51.070;4.974;2023-01-23T15:42:28;32.47;;;13.23;;
33501;SDS011;22396;51.070;4.974;2023-01-23T15:44:53;26.83;;;12.17;;
33501;SDS011;22396;51.070;4.974;2023-01-23T15:47:19;28.77;;;12.47;;
33501;SDS011;22396;51.070;4.974;2023-01-23T15:49:44;27.47;;;12.63;;
33501;SDS011;22396;51.070;4.974;2023-01-23T15:52:17;25.90;;;12.67;;
33501;SDS011;22396;51.070;4.974;2023-01-23T15:54:43;24.43;;;11.70;;
33501;SDS011;22396;51.070;4.974;2023-01-23T15:57:10;29.57;;;12.73;;
33501;SDS011;22396;51.070;4.974;2023-01-23T15:59:36;30.80;;;13.50;;